Time;durP1;ratioP1;P1;durP2;ratioP2;P2;SDS_P1;SDS_P2;PMS_P1;PMS_P2;Temp;Humidity;BMP_temperature;BMP_pressure;BME280_temperature;BME280_humidity;BME280_pressure;Samples;Min_cycle;Max_cycle;Signal;HPM_P1;HPM_P2
2021/08/06 00:02:19;;;;;;;3.15;2.30;;;;;;;16.99;100.00;99448.53;5145422;27;20058;-80
2021/08/06 00:04:46;;;;;;;3.15;2.50;;;;;;;16.99;100.00;99446.72;5131209;27;20051;-82
2021/08/06 00:07:13;;;;;;;2.92;2.53;;;;;;;16.99;100.00;99451.22;5139346;27;20047;-81
2021/08/06 00:09:39;;;;;;;2.95;2.25;;;;;;;17.04;100.00;99454.31;5140723;27;20052;-81
2021/08/06 00:12:07;;;;;;;3.22;2.50;;;;;;;17.06;100.00;99444.31;5143017;27;20042;-80
2021/08/06 00:14:35;;;;;;;2.30;2.10;;;;;;;17.10;100.00;99448.44;5138894;27;20048;-81
2021/08/06 00:17:03;;;;;;;3.75;2.40;;;;;;;17.10;100.00;99445.75;5136630;27;20043;-81
2021/08/06 00:19:30;;;;;;;2.72;2.42;;;;;;;17.07;100.00;99435.31;5139108;27;20114;-81
2021/08/06 00:21:57;;;;;;;2.22;2.00;;;;;;;17.04;100.00;99427.56;5141719;27;20045;-80
2021/08/06 00:24:27;;;;;;;3.67;2.38;;;;;;;17.08;100.00;99435.19;5157974;27;20062;-80
2021/08/06 00:26:54;;;;;;;3.38;2.20;;;;;;;17.09;100.00;99436.03;5154789;27;20038;-81
2021/08/06 00:29:22;;;;;;;3.58;2.38;;;;;;;17.05;100.00;99438.13;5152420;27;20053;-81
2021/08/06 00:31:48;;;;;;;2.97;2.42;;;;;;;17.02;100.00;99433.03;5147280;27;20490;-81
2021/08/06 00:34:17;;;;;;;2.60;2.40;;;;;;;17.02;100.00;99426.84;5154159;27;20038;-81
2021/08/06 00:36:44;;;;;;;3.10;2.70;;;;;;;17.00;100.00;99428.84;5148736;27;20038;-81
2021/08/06 00:39:11;;;;;;;3.45;2.40;;;;;;;16.99;100.00;99433.34;5151169;27;20042;-82
2021/08/06 00:41:38;;;;;;;2.60;2.17;;;;;;;16.99;100.00;99430.66;5152767;27;20042;-81
2021/08/06 00:44:05;;;;;;;3.17;2.72;;;;;;;17.00;100.00;99439.53;5139602;27;20089;-81
2021/08/06 00:46:33;;;;;;;3.60;2.55;;;;;;;16.98;100.00;99426.28;5156112;27;20049;-81
2021/08/06 00:49:00;;;;;;;3.47;2.50;;;;;;;16.97;100.00;99419.25;5155054;27;20046;-80
2021/08/06 00:51:27;;;;;;;3.20;2.47;;;;;;;16.96;100.00;99422.91;5157180;27;20051;-81
2021/08/06 00:53:54;;;;;;;2.55;2.35;;;;;;;16.95;100.00;99415.88;5155820;27;20061;-81
2021/08/06 00:56:22;;;;;;;2.47;2.28;;;;;;;16.94;100.00;99414.16;5160719;27;20349;-81
2021/08/06 00:58:48;;;;;;;3.85;2.90;;;;;;;16.95;100.00;99418.53;5135017;27;20540;-81
2021/08/06 01:01:19;;;;;;;3.33;2.63;;;;;;;16.95;100.00;99423.88;5146168;27;20073;-80
2021/08/06 01:04:07;;;;;;;2.78;2.38;;;;;;;16.94;100.00;99421.34;5148585;27;20066;-82
2021/08/06 01:06:49;;;;;;;4.43;2.92;;;;;;;16.93;100.00;99423.19;5143719;27;20058;-81
2021/08/06 01:09:30;;;;;;;5.72;2.75;;;;;;;16.92;100.00;99420.63;5137028;27;20091;-81
2021/08/06 01:12:04;;;;;;;3.13;2.80;;;;;;;16.92;100.00;99432.19;5157787;27;20490;-81
2021/08/06 01:14:35;;;;;;;2.83;2.63;;;;;;;16.92;100.00;99424.16;5157303;27;20050;-81
2021/08/06 01:17:04;;;;;;;3.55;3.10;;;;;;;16.90;100.00;99420.75;5157385;27;20047;-82
2021/08/06 01:19:31;;;;;;;4.10;3.10;;;;;;;16.91;100.00;99426.97;5154525;27;20035;-81
2021/08/06 01:22:13;;;;;;;6.90;2.85;;;;;;;16.88;100.00;99420.06;5156768;27;20042;-81
2021/08/06 01:24:48;;;;;;;3.20;2.85;;;;;;;16.88;100.00;99419.19;5137125;27;20165;-80
2021/08/06 01:27:15;;;;;;;3.22;2.92;;;;;;;16.88;100.00;99416.53;5139219;27;20486;-82
2021/08/06 01:29:42;;;;;;;3.45;3.10;;;;;;;16.87;100.00;99418.34;5138238;27;20043;-81
2021/08/06 01:32:08;;;;;;;3.08;2.30;;;;;;;16.88;100.00;99412.03;5141196;27;20039;-81
2021/08/06 01:34:35;;;;;;;3.53;2.95;;;;;;;16.89;100.00;99418.22;5139383;27;20047;-80
2021/08/06 01:37:02;;;;;;;4.43;3.00;;;;;;;16.89;100.00;99415.53;5126116;27;20047;-81
2021/08/06 01:39:32;;;;;;;3.35;2.88;;;;;;;16.90;100.00;99415.41;5135754;27;20047;-82
2021/08/06 01:42:36;;;;;;;5.10;3.00;;;;;;;16.90;100.00;99423.44;5133593;27;20452;-81
2021/08/06 01:45:08;;;;;;;4.05;2.88;;;;;;;16.91;100.00;99422.47;5065650;27;20816;-82
2021/08/06 01:47:40;;;;;;;4.45;3.17;;;;;;;16.91;100.00;99414.44;5138847;27;20042;-81
2021/08/06 01:50:14;;;;;;;4.10;3.10;;;;;;;16.93;100.00;99416.97;5136659;27;20039;-80
2021/08/06 01:52:47;;;;;;;3.75;3.03;;;;;;;16.93;100.00;99422.31;5125197;27;20039;-80
2021/08/06 01:55:16;;;;;;;3.30;3.00;;;;;;;16.94;100.00;99419.53;5141942;27;20063;-81
2021/08/06 01:57:46;;;;;;;3.45;3.13;;;;;;;16.94;100.00;99414.16;5123573;27;20035;-82
2021/08/06 02:00:15;;;;;;;3.47;3.00;;;;;;;16.93;100.00;99411.63;5124980;27;20524;-80
2021/08/06 02:02:42;;;;;;;3.75;2.78;;;;;;;16.91;100.00;99409.09;5141517;27;20631;-80
2021/08/06 02:05:10;;;;;;;3.40;3.10;;;;;;;16.92;100.00;99412.59;5131800;27;20082;-81
2021/08/06 02:07:36;;;;;;;4.20;3.33;;;;;;;16.91;100.00;99417.13;5132360;27;20039;-80
2021/08/06 02:10:04;;;;;;;3.75;2.83;;;;;;;16.88;100.00;99412.03;5129784;27;20061;-81
2021/08/06 02:12:33;;;;;;;3.55;3.13;;;;;;;16.89;100.00;99408.38;5137227;27;20048;-79
2021/08/06 02:15:00;;;;;;;3.72;3.25;;;;;;;16.88;100.00;99412.03;5143566;27;20047;-80
2021/08/06 02:17:27;;;;;;;4.10;2.95;;;;;;;16.86;100.00;99405.13;5149318;27;20070;-82
2021/08/06 02:19:56;;;;;;;3.67;3.20;;;;;;;16.85;100.00;99404.28;5144376;27;20027;-82
2021/08/06 02:22:23;;;;;;;4.60;3.58;;;;;;;16.85;100.00;99404.28;5134377;27;20047;-82
2021/08/06 02:24:50;;;;;;;4.63;3.58;;;;;;;16.80;100.00;99393.16;5152434;27;20122;-81
2021/08/06 02:27:21;;;;;;;4.57;3.25;;;;;;;16.77;100.00;99390.75;5139141;27;20065;-81
2021/08/06 02:29:49;;;;;;;;;;;;;;;16.74;100.00;99391.88;5141075;27;20039;-80
2021/08/06 02:32:15;;;;;;;3.90;3.00;;;;;;;16.72;100.00;99395.66;5140878;27;19919;-82
2021/08/06 02:34:43;;;;;;;3.58;3.20;;;;;;;16.71;100.00;99396.63;5153328;27;20056;-81
2021/08/06 02:37:09;;;;;;;3.88;3.10;;;;;;;16.71;100.00;99385.94;5153674;27;20051;-80
2021/08/06 02:39:36;;;;;;;6.03;3.53;;;;;;;16.70;100.00;99378.91;5135275;27;20435;-81
2021/08/06 02:42:05;;;;;;;4.10;3.67;;;;;;;16.68;100.00;99378.22;5131395;27;20046;-80
2021/08/06 02:44:39;;;;;;;5.40;3.63;;;;;;;16.68;100.00;99379.06;5130031;27;20110;-81
2021/08/06 02:47:07;;;;;;;4.47;3.78;;;;;;;16.66;100.00;99382.84;5137055;27;20088;-80
2021/08/06 02:49:34;;;;;;;4.22;3.30;;;;;;;16.68;100.00;99383.56;5132730;28;20043;-81
2021/08/06 02:52:04;;;;;;;4.47;3.97;;;;;;;16.67;100.00;99379.19;5134228;27;20047;-81
2021/08/06 02:54:34;;;;;;;5.53;4.10;;;;;;;16.69;100.00;99377.19;5141343;27;20031;-81
2021/08/06 02:57:01;;;;;;;7.40;4.03;;;;;;;16.67;100.00;99368.50;5135740;28;20058;-82
2021/08/06 02:59:29;;;;;;;4.13;3.70;;;;;;;16.68;100.00;99376.38;5138962;28;20039;-81
2021/08/06 03:01:56;;;;;;;6.63;4.30;;;;;;;16.73;100.00;99386.66;5146502;28;20051;-81
2021/08/06 03:04:23;;;;;;;5.07;4.13;;;;;;;16.68;100.00;99365.69;5123771;28;20225;-82
2021/08/06 03:06:49;;;;;;;6.45;4.10;;;;;;;16.80;100.00;99363.75;5145514;28;20027;-82
2021/08/06 03:09:16;;;;;;;4.78;3.67;;;;;;;16.83;100.00;99368.84;5147144;27;20119;-82
2021/08/06 03:11:43;;;;;;;6.03;4.10;;;;;;;16.86;100.00;99365.84;5148497;27;20054;-81
2021/08/06 03:14:10;;;;;;;4.03;3.55;;;;;;;16.89;100.00;99365.59;5144742;27;20062;-82
2021/08/06 03:16:36;;;;;;;4.55;3.90;;;;;;;16.94;100.00;99365.19;5132977;28;20050;-81
2021/08/06 03:19:03;;;;;;;6.30;3.70;;;;;;;16.97;100.00;99365.75;5128873;28;20515;-80
2021/08/06 03:21:30;;;;;;;4.65;3.97;;;;;;;17.01;100.00;99369.00;5113414;28;20055;-81
2021/08/06 03:23:56;;;;;;;5.88;4.05;;;;;;;17.02;100.00;99376.88;5122130;28;20320;-81
2021/08/06 03:26:23;;;;;;;6.18;4.60;;;;;;;17.03;100.00;99370.53;5111693;28;20077;-80
2021/08/06 03:28:50;;;;;;;6.43;4.38;;;;;;;17.03;100.00;99373.22;5131883;27;20051;-81
2021/08/06 03:31:16;;;;;;;5.65;3.90;;;;;;;17.06;100.00;99370.28;5128295;27;20050;-81
2021/08/06 03:33:43;;;;;;;6.05;4.00;;;;;;;17.08;100.00;99364.78;5116575;27;20483;-82
2021/08/06 03:36:12;;;;;;;4.53;3.63;;;;;;;17.09;100.00;99369.16;5131678;27;20047;-81
2021/08/06 03:38:38;;;;;;;7.57;4.40;;;;;;;17.13;100.00;99368.75;5132368;27;20115;-81
2021/08/06 03:41:05;;;;;;;4.20;3.80;;;;;;;17.16;100.00;99364.94;5135769;27;20066;-82
2021/08/06 03:43:32;;;;;;;5.10;3.90;;;;;;;17.18;100.00;99369.16;5129281;27;20051;-82
2021/08/06 03:45:58;;;;;;;5.15;3.83;;;;;;;17.19;100.00;99368.19;5129520;27;20501;-81
2021/08/06 03:48:25;;;;;;;4.63;3.40;;;;;;;17.18;100.00;99363.81;5129439;27;20050;-80
2021/08/06 03:50:52;;;;;;;4.38;3.63;;;;;;;17.21;100.00;99372.53;5118218;27;20047;-80
2021/08/06 03:53:18;;;;;;;5.15;3.88;;;;;;;17.22;100.00;99375.09;5129672;27;20035;-80
2021/08/06 03:55:45;;;;;;;6.70;3.60;;;;;;;17.25;100.00;99376.66;5131672;27;20122;-81
2021/08/06 03:58:12;;;;;;;5.78;4.07;;;;;;;17.26;100.00;99373.00;5133605;27;20043;-82
2021/08/06 04:00:39;;;;;;;6.72;4.32;;;;;;;17.21;100.00;99367.19;5138285;27;20057;-80
2021/08/06 04:03:06;;;;;;;5.45;4.20;;;;;;;17.20;100.00;99366.34;5138311;27;20047;-82
2021/08/06 04:05:35;;;;;;;5.53;3.88;;;;;;;17.15;100.00;99360.59;5134745;27;20408;-81
2021/08/06 04:08:07;;;;;;;6.72;4.35;;;;;;;17.14;100.00;99358.91;5139964;27;20048;-81
2021/08/06 04:10:36;;;;;;;5.75;3.83;;;;;;;17.12;100.00;99372.41;5150393;27;20059;-81
2021/08/06 04:13:02;;;;;;;6.30;4.40;;;;;;;17.09;100.00;99370.00;5149743;27;20067;-81
2021/08/06 04:15:29;;;;;;;4.80;4.15;;;;;;;17.07;100.00;99369.28;5134903;27;20049;-82
2021/08/06 04:17:56;;;;;;;6.57;4.03;;;;;;;17.04;100.00;99376.75;5153334;27;20050;-80
2021/08/06 04:20:23;;;;;;;5.53;3.80;;;;;;;16.98;100.00;99372.81;5152891;27;20071;-80
2021/08/06 04:22:50;;;;;;;5.63;3.55;;;;;;;16.95;100.00;99370.41;5149967;27;20120;-81
2021/08/06 04:25:17;;;;;;;5.45;3.70;;;;;;;16.91;100.00;99373.47;5147160;27;20099;-81
2021/08/06 04:27:44;;;;;;;5.30;4.00;;;;;;;16.88;100.00;99377.25;5151521;27;20047;-80
2021/08/06 04:30:12;;;;;;;5.82;3.58;;;;;;;16.82;100.00;99357.28;5138807;27;20079;-81
2021/08/06 04:32:39;;;;;;;7.03;4.50;;;;;;;16.76;100.00;99359.66;5135994;27;20053;-80
2021/08/06 04:35:06;;;;;;;6.47;4.38;;;;;;;16.67;100.00;99369.34;5133121;27;20062;-82
2021/08/06 04:37:33;;;;;;;8.35;3.97;;;;;;;16.65;100.00;99362.44;5130283;27;20047;-82
2021/08/06 04:40:00;;;;;;;5.28;4.22;;;;;;;16.60;100.00;99362.81;5130975;27;20107;-80
2021/08/06 04:42:28;;;;;;;6.53;4.65;;;;;;;16.54;100.00;99367.81;5118992;27;20048;-81
2021/08/06 04:44:54;;;;;;;5.18;4.07;;;;;;;16.50;100.00;99367.28;5114397;27;20049;-81
2021/08/06 04:47:21;;;;;;;6.63;4.43;;;;;;;16.46;100.00;99364.00;5112849;27;20347;-81
2021/08/06 04:49:48;;;;;;;6.88;4.70;;;;;;;16.45;100.00;99364.16;5109689;27;20046;-80
2021/08/06 04:52:14;;;;;;;4.78;3.97;;;;;;;16.40;100.00;99372.56;5106890;27;20046;-81
2021/08/06 04:54:41;;;;;;;4.63;4.22;;;;;;;16.39;100.00;99370.00;5115861;27;20059;-81
2021/08/06 04:57:07;;;;;;;7.88;4.50;;;;;;;16.37;100.00;99366.66;5116023;27;20491;-81
2021/08/06 04:59:34;;;;;;;7.25;5.10;;;;;;;16.34;100.00;99364.25;5122662;27;20475;-81
2021/08/06 05:02:01;;;;;;;6.35;4.68;;;;;;;16.32;100.00;99361.72;5115181;27;20400;-82
2021/08/06 05:04:28;;;;;;;8.55;5.03;;;;;;;16.31;100.00;99362.69;5110584;27;20075;-81
2021/08/06 05:06:54;;;;;;;6.47;5.30;;;;;;;16.33;100.00;99363.41;5112227;27;20050;-81
2021/08/06 05:09:21;;;;;;;8.20;5.22;;;;;;;16.35;100.00;99355.25;5112922;27;20062;-82
2021/08/06 05:11:48;;;;;;;8.32;5.05;;;;;;;16.38;100.00;99366.50;5115306;27;20046;-82
2021/08/06 05:14:14;;;;;;;7.18;5.30;;;;;;;16.32;100.00;99356.38;5118546;27;20075;-81
2021/08/06 05:16:42;;;;;;;5.93;4.90;;;;;;;16.33;100.00;99363.41;5111517;27;20105;-82
2021/08/06 05:19:09;;;;;;;7.30;5.35;;;;;;;16.35;100.00;99358.78;5112844;27;20048;-81
2021/08/06 05:21:36;;;;;;;6.43;4.72;;;;;;;16.38;100.00;99345.13;5113821;27;20036;-82
2021/08/06 05:24:03;;;;;;;5.97;4.53;;;;;;;16.39;100.00;99351.31;5124079;27;20047;-81
2021/08/06 05:26:29;;;;;;;5.35;4.85;;;;;;;16.39;100.00;99346.81;5143514;27;20121;-82
2021/08/06 05:28:56;;;;;;;7.55;5.20;;;;;;;16.40;100.00;99353.00;5115921;27;20135;-83
2021/08/06 05:31:23;;;;;;;7.45;5.32;;;;;;;16.36;100.00;99349.78;5125658;27;20049;-82
2021/08/06 05:33:49;;;;;;;7.15;4.85;;;;;;;16.37;100.00;99355.97;5131380;27;20050;-82
2021/08/06 05:36:16;;;;;;;8.20;5.25;;;;;;;16.34;100.00;99351.72;5107395;27;20150;-81
2021/08/06 05:38:43;;;;;;;8.50;5.45;;;;;;;16.32;100.00;99345.69;5123330;27;20043;-83
2021/08/06 05:41:10;;;;;;;7.75;5.72;;;;;;;16.30;100.00;99349.47;5113238;27;20049;-82
2021/08/06 05:43:36;;;;;;;9.63;5.88;;;;;;;16.31;100.00;99346.66;5128987;27;20309;-82
2021/08/06 05:46:03;;;;;;;8.07;5.15;;;;;;;16.31;100.00;99359.16;5137010;27;20043;-83
2021/08/06 05:48:30;;;;;;;8.70;5.60;;;;;;;16.30;100.00;99350.31;5130667;27;20051;-82
2021/08/06 05:50:56;;;;;;;8.52;5.70;;;;;;;16.33;100.00;99346.53;5138642;27;20047;-81
2021/08/06 05:53:23;;;;;;;10.70;6.28;;;;;;;16.36;100.00;99344.44;5136895;27;20039;-82
2021/08/06 05:55:50;;;;;;;8.13;6.07;;;;;;;16.41;100.00;99344.00;5137303;27;20110;-83
2021/08/06 05:58:17;;;;;;;7.95;5.80;;;;;;;16.45;100.00;99345.44;5147962;27;20103;-81
2021/08/06 06:00:43;;;;;;;8.43;5.68;;;;;;;16.47;100.00;99336.31;5143012;27;20043;-80
2021/08/06 06:03:13;;;;;;;6.28;5.43;;;;;;;16.46;100.00;99350.66;5139158;27;20046;-80
2021/08/06 06:05:40;;;;;;;8.35;5.97;;;;;;;16.44;100.00;99335.72;5127764;27;20046;-81
2021/08/06 06:08:06;;;;;;;7.63;5.25;;;;;;;16.44;100.00;99347.28;5130842;27;20055;-81
2021/08/06 06:10:33;;;;;;;8.68;5.80;;;;;;;16.44;100.00;99347.28;5127926;27;20051;-80
2021/08/06 06:12:59;;;;;;;6.63;5.13;;;;;;;16.46;100.00;99344.47;5128087;27;20043;-81
2021/08/06 06:15:26;;;;;;;7.88;5.65;;;;;;;16.52;100.00;99343.94;5129224;27;20042;-81
2021/08/06 06:17:54;;;;;;;8.25;5.45;;;;;;;16.55;100.00;99343.63;5141010;27;20055;-81
2021/08/06 06:20:20;;;;;;;8.75;5.20;;;;;;;16.59;100.00;99344.22;5139995;27;20122;-80
2021/08/06 06:22:47;;;;;;;8.68;5.55;;;;;;;16.66;100.00;99343.59;5133405;27;20065;-81
2021/08/06 06:25:15;;;;;;;8.80;5.30;;;;;;;16.74;100.00;99338.41;5151596;27;20524;-81
2021/08/06 06:27:50;;;;;;;6.93;4.82;;;;;;;16.75;100.00;99347.25;5157624;27;20324;-81
2021/08/06 06:30:17;;;;;;;5.95;4.78;;;;;;;16.68;100.00;99346.97;5164599;27;20038;-81
2021/08/06 06:32:44;;;;;;;9.27;5.38;;;;;;;16.68;100.00;99348.81;5164254;27;20103;-81
2021/08/06 06:35:11;;;;;;;8.88;5.40;;;;;;;16.74;100.00;99348.25;5152520;27;20534;-81
2021/08/06 06:37:38;;;;;;;7.13;5.60;;;;;;;16.97;100.00;99344.38;5149201;27;21486;-81
2021/08/06 06:40:05;;;;;;;7.88;5.38;;;;;;;17.11;100.00;99337.78;5152674;27;20125;-81
2021/08/06 06:42:32;;;;;;;5.38;4.88;;;;;;;17.08;100.00;99346.06;5149634;27;20118;-81
2021/08/06 06:44:58;;;;;;;7.80;6.07;;;;;;;17.14;100.00;99342.84;5146870;27;20046;-81
2021/08/06 06:47:25;;;;;;;5.78;4.85;;;;;;;17.20;100.00;99352.97;5150254;27;20042;-80
2021/08/06 06:49:52;;;;;;;7.32;5.43;;;;;;;17.29;100.00;99359.34;5146760;27;20568;-80
2021/08/06 06:52:18;;;;;;;9.07;5.43;;;;;;;17.31;100.00;99354.69;5133973;27;20378;-81
2021/08/06 06:54:45;;;;;;;5.68;4.40;;;;;;;17.31;100.00;99352.88;5156035;27;20053;-79
2021/08/06 06:57:12;;;;;;;6.72;4.45;;;;;;;17.27;100.00;99361.31;5154859;27;20542;-81
2021/08/06 06:59:40;;;;;;;6.30;4.72;;;;;;;17.23;100.00;99355.38;5160750;27;20114;-79
2021/08/06 07:02:08;;;;;;;7.18;4.78;;;;;;;17.22;100.00;99358.19;5154975;27;20053;-82
2021/08/06 07:04:34;;;;;;;6.55;4.60;;;;;;;17.17;100.00;99361.28;5136495;27;20077;-81
2021/08/06 07:07:02;;;;;;;5.82;4.68;;;;;;;17.15;100.00;99355.25;5138895;27;20379;-81
2021/08/06 07:09:29;;;;;;;7.60;4.90;;;;;;;17.08;100.00;99354.94;5150410;27;20471;-80
2021/08/06 07:11:56;;;;;;;5.93;4.75;;;;;;;17.16;100.00;99362.25;5153805;27;20054;-80
2021/08/06 07:14:24;;;;;;;5.53;4.82;;;;;;;17.20;100.00;99369.03;5152383;27;20039;-81
2021/08/06 07:16:51;;;;;;;7.43;5.53;;;;;;;17.23;100.00;99371.44;5150662;27;20584;-81
2021/08/06 07:19:17;;;;;;;7.60;6.20;;;;;;;17.25;100.00;99371.28;5152546;27;20046;-80
2021/08/06 07:21:48;;;;;;;7.07;5.60;;;;;;;17.23;100.00;99367.91;5149626;27;20139;-81
2021/08/06 07:24:15;;;;;;;8.07;5.65;;;;;;;17.23;100.00;99376.78;5154517;27;20142;-81
2021/08/06 07:26:42;;;;;;;7.85;5.70;;;;;;;17.21;100.00;99372.53;5137010;27;20043;-81
2021/08/06 07:29:09;;;;;;;6.60;5.90;;;;;;;17.18;100.00;99385.22;5149746;27;20050;-81
2021/08/06 07:31:36;;;;;;;7.35;5.45;;;;;;;17.17;100.00;99385.34;5153475;27;20050;-81
2021/08/06 07:34:03;;;;;;;6.55;5.85;;;;;;;17.19;100.00;99381.56;5152178;27;20047;-81
2021/08/06 07:36:30;;;;;;;12.65;6.13;;;;;;;17.23;100.00;99392.00;5150545;27;20046;-81
2021/08/06 07:38:57;;;;;;;7.05;6.35;;;;;;;17.36;100.00;99388.06;5159036;27;20055;-81
2021/08/06 07:41:24;;;;;;;8.52;7.10;;;;;;;17.45;100.00;99389.06;5169842;27;20052;-80
2021/08/06 07:43:51;;;;;;;7.93;7.13;;;;;;;17.51;100.00;99389.34;5164236;27;20042;-80
2021/08/06 07:46:18;;;;;;;8.05;7.35;;;;;;;17.64;100.00;99393.59;5165402;27;20159;-81
2021/08/06 07:48:44;;;;;;;8.70;7.13;;;;;;;17.72;100.00;99386.56;5159845;27;20050;-80
2021/08/06 07:51:11;;;;;;;8.15;7.35;;;;;;;17.88;100.00;99384.16;5161483;27;20053;-81
2021/08/06 07:53:38;;;;;;;7.93;7.22;;;;;;;18.06;100.00;99388.78;5168566;27;20053;-79
2021/08/06 07:56:05;;;;;;;6.90;6.30;;;;;;;18.02;100.00;99390.03;5166446;27;20044;-79
2021/08/06 07:58:32;;;;;;;7.18;6.47;;;;;;;17.96;100.00;99387.94;5163718;27;20130;-80
2021/08/06 08:00:59;;;;;;;8.10;7.35;;;;;;;17.88;100.00;99389.50;5149934;27;20043;-80
2021/08/06 08:03:26;;;;;;;7.45;6.75;;;;;;;17.75;100.00;99394.31;5165041;27;20383;-80
2021/08/06 08:05:56;;;;;;;8.50;7.63;;;;;;;17.70;100.00;99401.06;5180837;27;20476;-81
2021/08/06 08:08:23;;;;;;;10.57;7.47;;;;;;;17.67;100.00;99385.28;5158614;27;20044;-81
2021/08/06 08:10:52;;;;;;;9.67;7.67;;;;;;;17.62;100.00;99391.03;5141734;27;20054;-80
2021/08/06 08:13:19;;;;;;;7.65;6.97;;;;;;;17.63;100.00;99395.38;5159052;27;20126;-79
2021/08/06 08:15:46;;;;;;;7.43;6.80;;;;;;;17.66;100.00;99394.28;5158262;27;20070;-80
2021/08/06 08:18:13;;;;;;;7.30;6.38;;;;;;;17.75;100.00;99409.53;5164568;27;20051;-80
2021/08/06 08:20:40;;;;;;;5.60;4.65;;;;;;;17.84;100.00;99406.84;5156345;27;20053;-80
2021/08/06 08:23:07;;;;;;;5.78;4.88;;;;;;;17.95;100.00;99405.84;5155476;27;20683;-80
2021/08/06 08:25:34;;;;;;;4.68;3.92;;;;;;;18.07;100.00;99406.53;5151664;27;20069;-81
2021/08/06 08:28:01;;;;;;;4.10;3.70;;;;;;;18.18;100.00;99406.38;5156756;27;20047;-82
2021/08/06 08:30:27;;;;;;;5.10;3.70;;;;;;;18.34;100.00;99403.09;5138361;27;20046;-81
2021/08/06 08:32:58;;;;;;;3.88;3.33;;;;;;;18.53;100.00;99405.72;5156718;27;20070;-81
2021/08/06 08:35:28;;;;;;;3.28;2.97;;;;;;;18.59;100.00;99402.47;5152223;27;20043;-81
2021/08/06 08:37:55;;;;;;;3.22;2.90;;;;;;;18.77;100.00;99399.84;5147185;27;20055;-80
2021/08/06 08:40:21;;;;;;;3.50;2.70;;;;;;;19.13;100.00;99408.84;5152581;27;20129;-81
2021/08/06 08:42:49;;;;;;;3.58;3.00;;;;;;;19.34;98.96;99395.16;5155725;27;20049;-82
2021/08/06 08:45:16;;;;;;;3.08;2.42;;;;;;;19.48;96.06;99400.84;5162394;27;20082;-81
2021/08/06 08:47:45;;;;;;;4.00;3.00;;;;;;;19.49;95.83;99393.63;5168472;27;20405;-82
2021/08/06 08:50:14;;;;;;;2.85;2.63;;;;;;;19.49;95.67;99396.31;5166712;27;20062;-82
2021/08/06 08:52:46;;;;;;;2.42;2.22;;;;;;;19.63;95.06;99401.19;5169185;27;20057;-83
2021/08/06 08:55:13;;;;;;;2.55;2.20;;;;;;;19.69;92.21;99405.94;5167741;27;20057;-82
2021/08/06 08:57:41;;;;;;;1.98;1.67;;;;;;;19.79;90.28;99401.34;5171137;27;20043;-82
2021/08/06 09:00:09;;;;;;;3.08;2.00;;;;;;;19.94;88.46;99402.47;5173402;27;20158;-82
2021/08/06 09:02:44;;;;;;;2.55;1.88;;;;;;;20.13;88.73;99401.44;5164873;27;20050;-82
2021/08/06 09:05:13;;;;;;;2.20;1.98;;;;;;;20.25;88.29;99412.78;5158229;27;20094;-81
2021/08/06 09:07:41;;;;;;;2.72;1.90;;;;;;;20.32;86.92;99413.81;5153098;27;20137;-82
2021/08/06 09:10:16;;;;;;;2.90;1.92;;;;;;;20.44;86.01;99398.31;5149020;27;20051;-82
2021/08/06 09:13:01;;;;;;;2.50;1.85;;;;;;;20.52;84.85;99407.25;5149751;27;20047;-82
2021/08/06 09:15:46;;;;;;;2.75;2.00;;;;;;;20.52;85.69;99403.72;5151793;27;20062;-80
2021/08/06 09:18:28;;;;;;;2.17;1.90;;;;;;;20.54;85.59;99405.25;5151710;27;20043;-80
2021/08/06 09:20:57;;;;;;;2.42;1.80;;;;;;;20.55;82.60;99388.13;5148435;27;20051;-80
2021/08/06 09:23:55;;;;;;;3.00;1.90;;;;;;;20.62;83.65;99399.06;5147712;27;20061;-80
2021/08/06 09:26:27;;;;;;;2.78;1.42;;;;;;;20.75;81.72;99404.03;5143996;27;20066;-80
2021/08/06 09:29:21;;;;;;;1.80;1.50;;;;;;;20.88;81.09;99397.19;5159867;27;20042;-79
2021/08/06 09:31:51;;;;;;;3.40;1.42;;;;;;;21.11;80.61;99404.66;5151778;27;20050;-79
2021/08/06 09:34:31;;;;;;;1.67;1.20;;;;;;;21.11;77.98;99397.44;5157300;27;20043;-79
2021/08/06 09:37:16;;;;;;;1.42;1.10;;;;;;;21.10;78.54;99402.97;5154226;27;21471;-81
2021/08/06 09:39:54;;;;;;;1.10;1.10;;;;;;;21.15;77.71;99401.50;5145394;27;20051;-82
2021/08/06 09:42:27;;;;;;;2.20;0.85;;;;;;;21.15;77.48;99404.19;5149540;27;20055;-82
2021/08/06 09:45:06;;;;;;;4.30;1.30;;;;;;;21.31;76.57;99408.81;5151577;27;20072;-83
2021/08/06 09:47:36;;;;;;;2.65;1.00;;;;;;;21.41;74.51;99412.19;5149017;27;20681;-82
2021/08/06 09:50:07;;;;;;;1.08;0.80;;;;;;;21.53;73.94;99402.81;5150786;27;20102;-82
2021/08/06 09:52:36;;;;;;;2.00;0.80;;;;;;;21.48;72.29;99401.59;5149581;27;20049;-81
2021/08/06 09:55:22;;;;;;;2.95;1.10;;;;;;;21.48;70.60;99424.00;5132840;27;20081;-82
2021/08/06 09:57:51;;;;;;;1.85;0.90;;;;;;;21.65;72.16;99412.25;5152304;27;20038;-82
2021/08/06 10:00:20;;;;;;;3.00;0.70;;;;;;;21.91;70.86;99416.63;5153438;27;20047;-82
2021/08/06 10:02:48;;;;;;;1.20;1.00;;;;;;;22.04;70.04;99415.16;5147992;27;20069;-81
2021/08/06 10:05:25;;;;;;;1.25;0.80;;;;;;;21.99;68.16;99393.25;5160233;27;20075;-82
2021/08/06 10:07:56;;;;;;;1.10;1.00;;;;;;;21.90;68.85;99415.78;5161933;27;20106;-81
2021/08/06 10:10:30;;;;;;;1.25;0.90;;;;;;;21.91;69.62;99414.78;5164840;27;20043;-82
2021/08/06 10:12:59;;;;;;;1.00;0.90;;;;;;;21.97;68.93;99416.81;5160162;27;20046;-82
2021/08/06 10:15:26;;;;;;;1.45;1.02;;;;;;;22.13;69.39;99412.47;5151223;27;20049;-82
2021/08/06 10:17:54;;;;;;;2.33;1.17;;;;;;;22.27;66.09;99415.31;5151938;27;20062;-82
2021/08/06 10:20:24;;;;;;;2.53;0.95;;;;;;;22.44;65.01;99410.72;5155915;27;20042;-82
2021/08/06 10:22:53;;;;;;;;;;;;;;;22.55;65.57;99423.00;5156869;27;20043;-83
2021/08/06 10:25:24;;;;;;;2.08;1.20;;;;;;;22.54;65.82;99410.53;5144988;27;19982;-82
2021/08/06 10:27:52;;;;;;;2.42;1.25;;;;;;;22.45;63.99;99407.03;5131674;27;20067;-82
2021/08/06 10:30:21;;;;;;;2.40;1.38;;;;;;;22.28;64.41;99413.47;5137516;27;22260;-82
2021/08/06 10:33:19;;;;;;;2.70;1.40;;;;;;;22.13;65.06;99401.69;5129078;27;20082;-80
2021/08/06 10:35:50;;;;;;;2.33;1.60;;;;;;;22.11;66.85;99395.59;5123905;27;20058;-81
2021/08/06 10:38:45;;;;;;;1.70;1.60;;;;;;;22.20;66.29;99402.66;5126300;27;20051;-82
2021/08/06 10:41:20;;;;;;;2.70;1.98;;;;;;;22.23;65.74;99403.16;5111536;28;20062;-82
2021/08/06 10:44:04;;;;;;;1.75;1.40;;;;;;;22.47;63.90;99407.69;5128819;27;20036;-82
2021/08/06 10:47:01;;;;;;;3.40;1.60;;;;;;;22.87;62.83;99392.41;5120610;27;20035;-82
2021/08/06 10:49:31;;;;;;;2.50;1.63;;;;;;;22.92;61.93;99398.13;5125923;27;20419;-82
2021/08/06 10:52:13;;;;;;;3.00;1.52;;;;;;;22.82;59.38;99408.31;5111750;28;20036;-82
2021/08/06 10:54:40;;;;;;;5.82;2.05;;;;;;;22.59;60.87;99405.47;5126374;27;20170;-83
2021/08/06 10:57:20;;;;;;;3.50;2.08;;;;;;;22.30;62.99;99397.94;5124973;27;20043;-83
2021/08/06 10:59:48;;;;;;;3.78;1.88;;;;;;;22.14;64.42;99400.66;5125926;28;20046;-82
2021/08/06 11:02:34;;;;;;;2.25;1.60;;;;;;;22.22;63.93;99406.03;5128924;27;20047;-82
2021/08/06 11:05:30;;;;;;;3.72;1.77;;;;;;;22.43;62.57;99398.25;5126018;28;20093;-82
2021/08/06 11:08:00;;;;;;;2.72;1.88;;;;;;;22.58;61.71;99404.63;5135345;27;20154;-80
2021/08/06 11:10:51;;;;;;;2.80;1.60;;;;;;;22.61;61.13;99398.88;5149028;27;20054;-79
2021/08/06 11:13:32;;;;;;;4.35;2.15;;;;;;;22.57;62.39;99405.63;5114635;28;20071;-81
2021/08/06 11:16:12;;;;;;;3.22;1.60;;;;;;;22.58;61.80;99396.53;5127379;27;20575;-81
2021/08/06 11:18:44;;;;;;;2.90;1.60;;;;;;;22.67;61.15;99384.69;5134543;27;20086;-81
2021/08/06 11:21:13;;;;;;;3.63;1.40;;;;;;;22.88;58.86;99381.44;5135787;27;20053;-82
2021/08/06 11:23:41;;;;;;;3.80;1.50;;;;;;;23.03;59.32;99389.66;5130166;27;20047;-83
2021/08/06 11:26:11;;;;;;;3.25;1.15;;;;;;;23.14;57.84;99386.53;5141654;27;20044;-82
2021/08/06 11:28:40;;;;;;;3.28;1.30;;;;;;;23.35;57.93;99389.47;5149508;27;20042;-82
2021/08/06 11:31:18;;;;;;;3.20;1.17;;;;;;;23.42;54.74;99387.75;5147702;27;20058;-82
2021/08/06 11:34:04;;;;;;;2.88;0.98;;;;;;;23.28;53.12;99388.50;5144475;28;20142;-83
2021/08/06 11:36:34;;;;;;;1.92;0.80;;;;;;;23.30;52.50;99386.44;5127662;28;20046;-82
2021/08/06 11:39:12;;;;;;;1.70;0.57;;;;;;;23.31;51.58;99390.00;5139907;27;20063;-79